sensor_id;sensor_type;location;lat;lon;timestamp;P1;durP1;ratioP1;P2;durP2;ratioP2
21030;SDS011;61072;47.808;7.636;2023-02-01T00:01:06;9.95;;;5.85;;
21030;SDS011;61072;47.808;7.636;2023-02-01T00:03:34;8.50;;;5.45;;
21030;SDS011;61072;47.808;7.636;2023-02-01T00:06:01;13.30;;;6.10;;
21030;SDS011;61072;47.808;7.636;2023-02-01T00:08:28;10.25;;;6.38;;
21030;SDS011;61072;47.808;7.636;2023-02-01T00:11:02;8.70;;;5.63;;
21030;SDS011;61072;47.808;7.636;2023-02-01T00:13:32;12.05;;;6.10;;
21030;SDS011;61072;47.808;7.636;2023-02-01T00:16:07;8.63;;;5.50;;
21030;SDS011;61072;47.808;7.636;2023-02-01T00:18:42;9.00;;;5.82;;
21030;SDS011;61072;47.808;7.636;2023-02-01T00:21:11;9.13;;;5.75;;
21030;SDS011;61072;47.808;7.636;2023-02-01T00:23:38;12.20;;;5.70;;
21030;SDS011;61072;47.808;7.636;2023-02-01T00:26:06;11.77;;;5.60;;
21030;SDS011;61072;47.808;7.636;2023-02-01T00:28:36;8.88;;;4.93;;
21030;SDS011;61072;47.808;7.636;2023-02-01T00:31:03;9.18;;;5.82;;
21030;SDS011;61072;47.808;7.636;2023-02-01T00:33:31;9.13;;;5.55;;
21030;SDS011;61072;47.808;7.636;2023-02-01T00:35:58;10.35;;;5.20;;
21030;SDS011;61072;47.808;7.636;2023-02-01T00:38:27;7.72;;;5.43;;
21030;SDS011;61072;47.808;7.636;2023-02-01T00:40:54;11.68;;;6.47;;
21030;SDS011;61072;47.808;7.636;2023-02-01T00:43:27;9.40;;;5.72;;
21030;SDS011;61072;47.808;7.636;2023-02-01T00:45:54;8.23;;;5.60;;
21030;SDS011;61072;47.808;7.636;2023-02-01T00:48:21;7.63;;;5.28;;
21030;SDS011;61072;47.808;7.636;2023-02-01T00:50:47;7.55;;;5.28;;
21030;SDS011;61072;47.808;7.636;2023-02-01T00:53:14;8.82;;;5.47;;
21030;SDS011;61072;47.808;7.636;2023-02-01T00:55:44;9.90;;;6.32;;
21030;SDS011;61072;47.808;7.636;2023-02-01T00:58:12;8.43;;;5.70;;
21030;SDS011;61072;47.808;7.636;2023-02-01T01:00:38;9.43;;;5.65;;
21030;SDS011;61072;47.808;7.636;2023-02-01T01:03:05;11.43;;;6.22;;
21030;SDS011;61072;47.808;7.636;2023-02-01T01:05:45;10.45;;;6.10;;
21030;SDS011;61072;47.808;7.636;2023-02-01T01:08:13;9.05;;;5.95;;
21030;SDS011;61072;47.808;7.636;2023-02-01T01:10:40;8.55;;;5.65;;
21030;SDS011;61072;47.808;7.636;2023-02-01T01:13:08;10.38;;;5.55;;
21030;SDS011;61072;47.808;7.636;2023-02-01T01:15:35;10.88;;;6.05;;
21030;SDS011;61072;47.808;7.636;2023-02-01T01:18:03;13.23;;;5.47;;
21030;SDS011;61072;47.808;7.636;2023-02-01T01:20:30;10.60;;;6.60;;
21030;SDS011;61072;47.808;7.636;2023-02-01T01:22:56;9.90;;;5.85;;
21030;SDS011;61072;47.808;7.636;2023-02-01T01:25:23;8.93;;;5.25;;
21030;SDS011;61072;47.808;7.636;2023-02-01T01:27:50;10.27;;;6.40;;
21030;SDS011;61072;47.808;7.636;2023-02-01T01:30:17;10.23;;;6.10;;
21030;SDS011;61072;47.808;7.636;2023-02-01T01:32:44;9.70;;;6.45;;
21030;SDS011;61072;47.808;7.636;2023-02-01T01:35:11;8.65;;;6.05;;
21030;SDS011;61072;47.808;7.636;2023-02-01T01:37:38;7.95;;;5.55;;
21030;SDS011;61072;47.808;7.636;2023-02-01T01:40:05;10.75;;;6.43;;
21030;SDS011;61072;47.808;7.636;2023-02-01T01:42:37;9.43;;;5.93;;
21030;SDS011;61072;47.808;7.636;2023-02-01T01:45:18;11.30;;;6.18;;
21030;SDS011;61072;47.808;7.636;2023-02-01T01:47:47;9.95;;;5.90;;
21030;SDS011;61072;47.808;7.636;2023-02-01T01:50:17;9.20;;;5.70;;
21030;SDS011;61072;47.808;7.636;2023-02-01T01:52:47;9.65;;;6.20;;
21030;SDS011;61072;47.808;7.636;2023-02-01T01:55:16;9.98;;;5.65;;
21030;SDS011;61072;47.808;7.636;2023-02-01T01:57:47;10.00;;;5.93;;
21030;SDS011;61072;47.808;7.636;2023-02-01T02:00:18;14.02;;;6.45;;
21030;SDS011;61072;47.808;7.636;2023-02-01T02:02:47;13.65;;;6.30;;
21030;SDS011;61072;47.808;7.636;2023-02-01T02:05:19;8.82;;;6.00;;
21030;SDS011;61072;47.808;7.636;2023-02-01T02:07:46;9.18;;;6.05;;
21030;SDS011;61072;47.808;7.636;2023-02-01T02:10:15;10.07;;;6.30;;
21030;SDS011;61072;47.808;7.636;2023-02-01T02:12:43;10.65;;;6.50;;
21030;SDS011;61072;47.808;7.636;2023-02-01T02:15:13;8.65;;;6.03;;
21030;SDS011;61072;47.808;7.636;2023-02-01T02:17:49;13.00;;;6.18;;
21030;SDS011;61072;47.808;7.636;2023-02-01T02:37:02;10.60;;;5.72;;
21030;SDS011;61072;47.808;7.636;2023-02-01T02:39:44;9.95;;;5.50;;
21030;SDS011;61072;47.808;7.636;2023-02-01T02:50:46;12.75;;;5.97;;
21030;SDS011;61072;47.808;7.636;2023-02-01T02:56:31;9.85;;;5.97;;
21030;SDS011;61072;47.808;7.636;2023-02-01T02:59:20;9.15;;;5.55;;
21030;SDS011;61072;47.808;7.636;2023-02-01T03:02:08;10.88;;;6.28;;
21030;SDS011;61072;47.808;7.636;2023-02-01T03:04:55;10.15;;;6.32;;
21030;SDS011;61072;47.808;7.636;2023-02-01T03:12:50;11.25;;;6.68;;
21030;SDS011;61072;47.808;7.636;2023-02-01T03:16:06;11.18;;;5.93;;
21030;SDS011;61072;47.808;7.636;2023-02-01T03:21:10;12.15;;;6.35;;
21030;SDS011;61072;47.808;7.636;2023-02-01T03:23:42;13.38;;;5.97;;
21030;SDS011;61072;47.808;7.636;2023-02-01T03:26:11;9.77;;;5.90;;
21030;SDS011;61072;47.808;7.636;2023-02-01T03:28:46;11.90;;;5.95;;
21030;SDS011;61072;47.808;7.636;2023-02-01T03:31:18;12.32;;;6.88;;
21030;SDS011;61072;47.808;7.636;2023-02-01T03:33:45;12.30;;;6.18;;
21030;SDS011;61072;47.808;7.636;2023-02-01T03:36:17;17.55;;;6.03;;
21030;SDS011;61072;47.808;7.636;2023-02-01T03:38:58;11.63;;;6.63;;
21030;SDS011;61072;47.808;7.636;2023-02-01T03:41:47;15.38;;;6.47;;
21030;SDS011;61072;47.808;7.636;2023-02-01T03:44:22;10.80;;;6.07;;
21030;SDS011;61072;47.808;7.636;2023-02-01T03:47:04;12.30;;;6.45;;
21030;SDS011;61072;47.808;7.636;2023-02-01T03:49:45;8.93;;;6.05;;
21030;SDS011;61072;47.808;7.636;2023-02-01T03:52:18;12.38;;;6.07;;
21030;SDS011;61072;47.808;7.636;2023-02-01T03:54:50;10.57;;;5.70;;
21030;SDS011;61072;47.808;7.636;2023-02-01T03:57:19;10.05;;;6.13;;
21030;SDS011;61072;47.808;7.636;2023-02-01T03:59:51;11.65;;;6.22;;
21030;SDS011;61072;47.808;7.636;2023-02-01T04:02:18;11.30;;;6.15;;
21030;SDS011;61072;47.808;7.636;2023-02-01T04:04:45;10.93;;;5.43;;
21030;SDS011;61072;47.808;7.636;2023-02-01T04:07:11;8.68;;;5.75;;
21030;SDS011;61072;47.808;7.636;2023-02-01T04:09:38;7.25;;;5.10;;
21030;SDS011;61072;47.808;7.636;2023-02-01T04:12:05;9.23;;;5.70;;
21030;SDS011;61072;47.808;7.636;2023-02-01T04:14:31;9.95;;;5.65;;
21030;SDS011;61072;47.808;7.636;2023-02-01T04:16:58;7.70;;;5.70;;
21030;SDS011;61072;47.808;7.636;2023-02-01T04:19:25;10.80;;;6.03;;
21030;SDS011;61072;47.808;7.636;2023-02-01T04:21:51;11.27;;;5.70;;
21030;SDS011;61072;47.808;7.636;2023-02-01T04:24:18;5.93;;;4.78;;
21030;SDS011;61072;47.808;7.636;2023-02-01T04:26:45;9.98;;;5.68;;
21030;SDS011;61072;47.808;7.636;2023-02-01T04:29:11;12.88;;;5.15;;
21030;SDS011;61072;47.808;7.636;2023-02-01T04:31:38;8.65;;;5.22;;
21030;SDS011;61072;47.808;7.636;2023-02-01T04:34:05;11.70;;;5.30;;
21030;SDS011;61072;47.808;7.636;2023-02-01T04:36:32;9.80;;;5.47;;
21030;SDS011;61072;47.808;7.636;2023-02-01T04:38:58;9.90;;;5.75;;
21030;SDS011;61072;47.808;7.636;2023-02-01T04:41:25;10.88;;;5.57;;
21030;SDS011;61072;47.808;7.636;2023-02-01T04:43:52;11.50;;;5.50;;
21030;SDS011;61072;47.808;7.636;2023-02-01T04:46:19;13.07;;;5.13;;
21030;SDS011;61072;47.808;7.636;2023-02-01T04:48:45;9.60;;;4.97;;
21030;SDS011;61072;47.808;7.636;2023-02-01T04:51:12;7.63;;;5.03;;
21030;SDS011;61072;47.808;7.636;2023-02-01T04:53:39;9.18;;;4.85;;
21030;SDS011;61072;47.808;7.636;2023-02-01T04:56:06;8.95;;;5.35;;
21030;SDS011;61072;47.808;7.636;2023-02-01T04:58:33;10.18;;;5.38;;
21030;SDS011;61072;47.808;7.636;2023-02-01T05:01:02;9.55;;;4.70;;
21030;SDS011;61072;47.808;7.636;2023-02-01T05:03:31;9.93;;;4.90;;
21030;SDS011;61072;47.808;7.636;2023-02-01T05:05:59;9.65;;;5.90;;
21030;SDS011;61072;47.808;7.636;2023-02-01T05:08:26;13.00;;;6.28;;
21030;SDS011;61072;47.808;7.636;2023-02-01T05:10:54;10.98;;;4.40;;
21030;SDS011;61072;47.808;7.636;2023-02-01T05:13:21;8.43;;;4.90;;
21030;SDS011;61072;47.808;7.636;2023-02-01T05:16:06;12.70;;;6.05;;
21030;SDS011;61072;47.808;7.636;2023-02-01T05:18:33;10.05;;;5.35;;
21030;SDS011;61072;47.808;7.636;2023-02-01T05:21:00;7.07;;;4.65;;
21030;SDS011;61072;47.808;7.636;2023-02-01T05:23:27;12.27;;;5.28;;
21030;SDS011;61072;47.808;7.636;2023-02-01T05:25:58;8.55;;;5.13;;
21030;SDS011;61072;47.808;7.636;2023-02-01T05:28:28;10.25;;;4.68;;
21030;SDS011;61072;47.808;7.636;2023-02-01T05:30:54;8.07;;;4.90;;
21030;SDS011;61072;47.808;7.636;2023-02-01T05:33:21;7.32;;;4.72;;
21030;SDS011;61072;47.808;7.636;2023-02-01T05:35:48;8.20;;;4.85;;
21030;SDS011;61072;47.808;7.636;2023-02-01T05:38:16;8.60;;;4.70;;
21030;SDS011;61072;47.808;7.636;2023-02-01T05:40:43;7.82;;;4.85;;
21030;SDS011;61072;47.808;7.636;2023-02-01T05:43:15;10.30;;;4.63;;
21030;SDS011;61072;47.808;7.636;2023-02-01T05:45:42;8.55;;;4.50;;
21030;SDS011;61072;47.808;7.636;2023-02-01T05:48:09;6.32;;;4.40;;
21030;SDS011;61072;47.808;7.636;2023-02-01T05:50:35;8.23;;;5.03;;
21030;SDS011;61072;47.808;7.636;2023-02-01T05:53:02;10.63;;;5.40;;
21030;SDS011;61072;47.808;7.636;2023-02-01T05:55:29;8.70;;;4.40;;
21030;SDS011;61072;47.808;7.636;2023-02-01T05:57:55;6.93;;;4.40;;
21030;SDS011;61072;47.808;7.636;2023-02-01T06:00:22;10.07;;;4.25;;
21030;SDS011;61072;47.808;7.636;2023-02-01T06:02:50;6.85;;;4.55;;
21030;SDS011;61072;47.808;7.636;2023-02-01T06:05:17;8.68;;;4.45;;
21030;SDS011;61072;47.808;7.636;2023-02-01T06:07:43;8.38;;;5.18;;
21030;SDS011;61072;47.808;7.636;2023-02-01T06:10:10;8.50;;;4.03;;
21030;SDS011;61072;47.808;7.636;2023-02-01T06:12:37;6.97;;;4.25;;
21030;SDS011;61072;47.808;7.636;2023-02-01T06:15:04;9.90;;;5.13;;
21030;SDS011;61072;47.808;7.636;2023-02-01T06:17:31;6.82;;;3.83;;
21030;SDS011;61072;47.808;7.636;2023-02-01T06:19:58;7.20;;;4.15;;
21030;SDS011;61072;47.808;7.636;2023-02-01T06:22:24;10.55;;;4.68;;
21030;SDS011;61072;47.808;7.636;2023-02-01T06:24:51;7.15;;;4.10;;
21030;SDS011;61072;47.808;7.636;2023-02-01T06:27:18;8.50;;;4.70;;
21030;SDS011;61072;47.808;7.636;2023-02-01T06:29:45;7.03;;;4.78;;
21030;SDS011;61072;47.808;7.636;2023-02-01T06:32:11;8.52;;;4.63;;
21030;SDS011;61072;47.808;7.636;2023-02-01T06:34:38;8.23;;;3.90;;
21030;SDS011;61072;47.808;7.636;2023-02-01T06:37:05;10.13;;;4.63;;
21030;SDS011;61072;47.808;7.636;2023-02-01T06:39:32;7.53;;;4.38;;
21030;SDS011;61072;47.808;7.636;2023-02-01T06:41:59;5.38;;;3.72;;
21030;SDS011;61072;47.808;7.636;2023-02-01T06:44:25;7.47;;;3.85;;
21030;SDS011;61072;47.808;7.636;2023-02-01T06:46:52;7.63;;;3.33;;
21030;SDS011;61072;47.808;7.636;2023-02-01T06:49:19;8.80;;;3.78;;
21030;SDS011;61072;47.808;7.636;2023-02-01T06:51:46;8.57;;;4.30;;
21030;SDS011;61072;47.808;7.636;2023-02-01T06:54:13;9.80;;;3.63;;
21030;SDS011;61072;47.808;7.636;2023-02-01T06:56:40;7.53;;;3.53;;
21030;SDS011;61072;47.808;7.636;2023-02-01T06:59:07;5.03;;;2.90;;
21030;SDS011;61072;47.808;7.636;2023-02-01T07:01:34;6.80;;;3.20;;
21030;SDS011;61072;47.808;7.636;2023-02-01T07:04:00;6.03;;;3.15;;
21030;SDS011;61072;47.808;7.636;2023-02-01T07:06:27;5.05;;;3.40;;
21030;SDS011;61072;47.808;7.636;2023-02-01T07:08:54;4.25;;;2.67;;
21030;SDS011;61072;47.808;7.636;2023-02-01T07:11:22;6.15;;;3.45;;
21030;SDS011;61072;47.808;7.636;2023-02-01T07:13:49;5.80;;;3.08;;
21030;SDS011;61072;47.808;7.636;2023-02-01T07:16:17;7.03;;;3.10;;
21030;SDS011;61072;47.808;7.636;2023-02-01T07:18:45;7.40;;;3.28;;
21030;SDS011;61072;47.808;7.636;2023-02-01T07:21:12;4.47;;;3.00;;
21030;SDS011;61072;47.808;7.636;2023-02-01T07:23:39;6.97;;;4.15;;
21030;SDS011;61072;47.808;7.636;2023-02-01T07:26:06;8.52;;;3.50;;
21030;SDS011;61072;47.808;7.636;2023-02-01T07:28:34;4.70;;;3.45;;
21030;SDS011;61072;47.808;7.636;2023-02-01T07:31:08;7.00;;;3.28;;
21030;SDS011;61072;47.808;7.636;2023-02-01T07:33:37;8.77;;;3.10;;
21030;SDS011;61072;47.808;7.636;2023-02-01T07:36:04;8.25;;;3.60;;
21030;SDS011;61072;47.808;7.636;2023-02-01T07:38:33;8.07;;;3.65;;
21030;SDS011;61072;47.808;7.636;2023-02-01T07:41:00;5.65;;;3.40;;
21030;SDS011;61072;47.808;7.636;2023-02-01T07:43:28;6.47;;;3.28;;
21030;SDS011;61072;47.808;7.636;2023-02-01T07:45:55;4.88;;;3.05;;
21030;SDS011;61072;47.808;7.636;2023-02-01T07:48:23;11.40;;;3.67;;
21030;SDS011;61072;47.808;7.636;2023-02-01T07:50:58;5.25;;;3.08;;
21030;SDS011;61072;47.808;7.636;2023-02-01T07:53:25;5.55;;;3.00;;
21030;SDS011;61072;47.808;7.636;2023-02-01T07:55:51;5.90;;;2.90;;
21030;SDS011;61072;47.808;7.636;2023-02-01T07:58:18;6.05;;;2.40;;
21030;SDS011;61072;47.808;7.636;2023-02-01T08:00:45;10.02;;;2.85;;
21030;SDS011;61072;47.808;7.636;2023-02-01T08:03:30;6.70;;;2.60;;
21030;SDS011;61072;47.808;7.636;2023-02-01T08:05:57;4.88;;;2.90;;
21030;SDS011;61072;47.808;7.636;2023-02-01T08:08:23;5.22;;;3.10;;
21030;SDS011;61072;47.808;7.636;2023-02-01T08:10:50;4.22;;;2.92;;
21030;SDS011;61072;47.808;7.636;2023-02-01T08:13:17;5.00;;;2.25;;
21030;SDS011;61072;47.808;7.636;2023-02-01T08:15:43;6.07;;;2.42;;
21030;SDS011;61072;47.808;7.636;2023-02-01T08:18:11;4.20;;;2.45;;
21030;SDS011;61072;47.808;7.636;2023-02-01T08:20:37;8.30;;;3.00;;
21030;SDS011;61072;47.808;7.636;2023-02-01T08:23:07;5.82;;;2.75;;
21030;SDS011;61072;47.808;7.636;2023-02-01T08:25:35;5.65;;;2.25;;
21030;SDS011;61072;47.808;7.636;2023-02-01T08:28:02;7.22;;;2.75;;
21030;SDS011;61072;47.808;7.636;2023-02-01T08:30:29;4.15;;;2.63;;
21030;SDS011;61072;47.808;7.636;2023-02-01T08:32:56;6.22;;;2.83;;
21030;SDS011;61072;47.808;7.636;2023-02-01T08:35:23;4.90;;;2.60;;
21030;SDS011;61072;47.808;7.636;2023-02-01T08:38:07;4.93;;;2.47;;
21030;SDS011;61072;47.808;7.636;2023-02-01T08:40:34;4.35;;;2.22;;
21030;SDS011;61072;47.808;7.636;2023-02-01T08:43:01;5.30;;;2.25;;
21030;SDS011;61072;47.808;7.636;2023-02-01T08:45:28;5.75;;;2.60;;
21030;SDS011;61072;47.808;7.636;2023-02-01T08:47:56;3.28;;;2.20;;
21030;SDS011;61072;47.808;7.636;2023-02-01T08:50:23;3.45;;;2.60;;
21030;SDS011;61072;47.808;7.636;2023-02-01T08:52:51;6.53;;;3.03;;
21030;SDS011;61072;47.808;7.636;2023-02-01T08:55:19;6.55;;;3.22;;
21030;SDS011;61072;47.808;7.636;2023-02-01T08:57:46;5.70;;;2.92;;
21030;SDS011;61072;47.808;7.636;2023-02-01T09:00:15;6.18;;;2.72;;
21030;SDS011;61072;47.808;7.636;2023-02-01T09:02:43;3.17;;;2.58;;
21030;SDS011;61072;47.808;7.636;2023-02-01T09:05:10;6.93;;;2.85;;
21030;SDS011;61072;47.808;7.636;2023-02-01T09:07:37;3.55;;;2.50;;
21030;SDS011;61072;47.808;7.636;2023-02-01T09:10:04;7.53;;;2.60;;
21030;SDS011;61072;47.808;7.636;2023-02-01T09:12:32;4.82;;;2.80;;
21030;SDS011;61072;47.808;7.636;2023-02-01T09:14:59;5.57;;;2.40;;
21030;SDS011;61072;47.808;7.636;2023-02-01T09:17:27;5.10;;;3.05;;
21030;SDS011;61072;47.808;7.636;2023-02-01T09:19:55;5.68;;;2.75;;
21030;SDS011;61072;47.808;7.636;2023-02-01T09:22:22;4.28;;;2.67;;
21030;SDS011;61072;47.808;7.636;2023-02-01T09:24:49;6.57;;;3.25;;
21030;SDS011;61072;47.808;7.636;2023-02-01T09:27:16;7.05;;;3.33;;
21030;SDS011;61072;47.808;7.636;2023-02-01T09:29:42;5.78;;;3.15;;
21030;SDS011;61072;47.808;7.636;2023-02-01T09:32:09;8.10;;;3.30;;
21030;SDS011;61072;47.808;7.636;2023-02-01T09:34:36;5.43;;;2.75;;
21030;SDS011;61072;47.808;7.636;2023-02-01T09:37:03;5.57;;;2.47;;
21030;SDS011;61072;47.808;7.636;2023-02-01T09:39:30;5.07;;;3.15;;
21030;SDS011;61072;47.808;7.636;2023-02-01T09:42:02;4.30;;;2.90;;
21030;SDS011;61072;47.808;7.636;2023-02-01T09:44:40;4.32;;;2.83;;
21030;SDS011;61072;47.808;7.636;2023-02-01T09:47:17;5.07;;;3.22;;
21030;SDS011;61072;47.808;7.636;2023-02-01T09:49:47;8.23;;;2.80;;
21030;SDS011;61072;47.808;7.636;2023-02-01T09:52:31;7.22;;;2.92;;
21030;SDS011;61072;47.808;7.636;2023-02-01T09:55:06;7.82;;;3.15;;
21030;SDS011;61072;47.808;7.636;2023-02-01T09:57:55;5.40;;;2.92;;
21030;SDS011;61072;47.808;7.636;2023-02-01T10:00:31;9.57;;;3.28;;
21030;SDS011;61072;47.808;7.636;2023-02-01T10:03:01;3.90;;;2.40;;
21030;SDS011;61072;47.808;7.636;2023-02-01T10:08:31;10.32;;;3.58;;
21030;SDS011;61072;47.808;7.636;2023-02-01T10:14:06;7.95;;;3.58;;
21030;SDS011;61072;47.808;7.636;2023-02-01T10:16:51;8.45;;;3.35;;
21030;SDS011;61072;47.808;7.636;2023-02-01T10:19:34;7.35;;;2.58;;
21030;SDS011;61072;47.808;7.636;2023-02-01T10:22:10;6.00;;;2.30;;
21030;SDS011;61072;47.808;7.636;2023-02-01T10:24:42;6.43;;;2.83;;
21030;SDS011;61072;47.808;7.636;2023-02-01T10:27:12;7.03;;;3.42;;
21030;SDS011;61072;47.808;7.636;2023-02-01T10:29:47;7.97;;;3.50;;
21030;SDS011;61072;47.808;7.636;2023-02-01T10:32:21;9.35;;;3.53;;
21030;SDS011;61072;47.808;7.636;2023-02-01T10:35:00;6.90;;;3.20;;
21030;SDS011;61072;47.808;7.636;2023-02-01T10:37:34;9.30;;;3.35;;
21030;SDS011;61072;47.808;7.636;2023-02-01T10:42:52;5.88;;;2.70;;
21030;SDS011;61072;47.808;7.636;2023-02-01T10:45:24;7.70;;;3.28;;
21030;SDS011;61072;47.808;7.636;2023-02-01T10:50:29;5.50;;;2.97;;
21030;SDS011;61072;47.808;7.636;2023-02-01T10:53:22;7.20;;;2.88;;
21030;SDS011;61072;47.808;7.636;2023-02-01T10:55:55;7.32;;;3.17;;
21030;SDS011;61072;47.808;7.636;2023-02-01T10:58:29;8.50;;;3.30;;
21030;SDS011;61072;47.808;7.636;2023-02-01T11:01:02;9.90;;;4.25;;
21030;SDS011;61072;47.808;7.636;2023-02-01T11:06:00;9.68;;;2.58;;
21030;SDS011;61072;47.808;7.636;2023-02-01T11:08:28;11.38;;;3.22;;
21030;SDS011;61072;47.808;7.636;2023-02-01T11:11:00;7.38;;;3.50;;
21030;SDS011;61072;47.808;7.636;2023-02-01T11:13:32;12.80;;;3.80;;
21030;SDS011;61072;47.808;7.636;2023-02-01T11:16:04;10.27;;;3.65;;
21030;SDS011;61072;47.808;7.636;2023-02-01T11:18:35;15.65;;;3.85;;
21030;SDS011;61072;47.808;7.636;2023-02-01T11:21:04;11.45;;;3.92;;
21030;SDS011;61072;47.808;7.636;2023-02-01T11:23:32;14.05;;;3.70;;
21030;SDS011;61072;47.808;7.636;2023-02-01T11:26:01;9.25;;;3.42;;
21030;SDS011;61072;47.808;7.636;2023-02-01T11:28:35;8.88;;;3.78;;
21030;SDS011;61072;47.808;7.636;2023-02-01T11:31:10;10.02;;;3.42;;
21030;SDS011;61072;47.808;7.636;2023-02-01T11:33:41;12.60;;;3.17;;
21030;SDS011;61072;47.808;7.636;2023-02-01T11:36:21;9.95;;;3.40;;
21030;SDS011;61072;47.808;7.636;2023-02-01T11:47:12;8.82;;;3.13;;
21030;SDS011;61072;47.808;7.636;2023-02-01T11:50:08;7.80;;;2.75;;
21030;SDS011;61072;47.808;7.636;2023-02-01T11:52:56;8.40;;;2.95;;
21030;SDS011;61072;47.808;7.636;2023-02-01T12:03:56;12.38;;;4.10;;
21030;SDS011;61072;47.808;7.636;2023-02-01T12:06:48;8.38;;;3.22;;
21030;SDS011;61072;47.808;7.636;2023-02-01T12:09:28;8.02;;;2.97;;
21030;SDS011;61072;47.808;7.636;2023-02-01T12:12:02;13.18;;;4.00;;
21030;SDS011;61072;47.808;7.636;2023-02-01T12:15:03;8.23;;;3.13;;
21030;SDS011;61072;47.808;7.636;2023-02-01T12:28:28;13.38;;;3.35;;
21030;SDS011;61072;47.808;7.636;2023-02-01T12:31:34;13.95;;;4.63;;
21030;SDS011;61072;47.808;7.636;2023-02-01T12:39:32;11.77;;;4.28;;
21030;SDS011;61072;47.808;7.636;2023-02-01T12:44:43;9.68;;;3.35;;
21030;SDS011;61072;47.808;7.636;2023-02-01T12:47:30;11.18;;;2.92;;
21030;SDS011;61072;47.808;7.636;2023-02-01T12:50:04;16.73;;;3.90;;
21030;SDS011;61072;47.808;7.636;2023-02-01T12:52:48;14.50;;;3.38;;
21030;SDS011;61072;47.808;7.636;2023-02-01T12:58:24;8.57;;;2.67;;
21030;SDS011;61072;47.808;7.636;2023-02-01T13:01:01;15.18;;;3.50;;
21030;SDS011;61072;47.808;7.636;2023-02-01T13:06:22;9.48;;;3.47;;
21030;SDS011;61072;47.808;7.636;2023-02-01T13:09:00;9.50;;;3.75;;
21030;SDS011;61072;47.808;7.636;2023-02-01T13:11:42;14.57;;;3.33;;
21030;SDS011;61072;47.808;7.636;2023-02-01T13:19:37;12.18;;;3.85;;
21030;SDS011;61072;47.808;7.636;2023-02-01T13:22:11;15.45;;;3.97;;
21030;SDS011;61072;47.808;7.636;2023-02-01T13:24:43;10.57;;;2.88;;
21030;SDS011;61072;47.808;7.636;2023-02-01T13:27:13;9.38;;;2.50;;
21030;SDS011;61072;47.808;7.636;2023-02-01T13:29:45;12.45;;;3.33;;
21030;SDS011;61072;47.808;7.636;2023-02-01T13:35:32;14.80;;;3.17;;
21030;SDS011;61072;47.808;7.636;2023-02-01T13:38:38;11.20;;;3.13;;
21030;SDS011;61072;47.808;7.636;2023-02-01T13:41:31;11.13;;;2.90;;
21030;SDS011;61072;47.808;7.636;2023-02-01T13:43:59;16.80;;;3.90;;
21030;SDS011;61072;47.808;7.636;2023-02-01T13:46:38;10.25;;;3.72;;
21030;SDS011;61072;47.808;7.636;2023-02-01T13:49:13;13.77;;;3.47;;
21030;SDS011;61072;47.808;7.636;2023-02-01T13:51:53;9.95;;;3.30;;
21030;SDS011;61072;47.808;7.636;2023-02-01T13:56:54;15.02;;;4.10;;
21030;SDS011;61072;47.808;7.636;2023-02-01T14:00:07;17.48;;;3.92;;
21030;SDS011;61072;47.808;7.636;2023-02-01T14:05:03;11.98;;;2.78;;
21030;SDS011;61072;47.808;7.636;2023-02-01T14:07:34;15.48;;;4.43;;
21030;SDS011;61072;47.808;7.636;2023-02-01T14:13:11;12.55;;;3.67;;
21030;SDS011;61072;47.808;7.636;2023-02-01T14:24:01;11.60;;;3.35;;
21030;SDS011;61072;47.808;7.636;2023-02-01T14:29:02;14.20;;;3.22;;
21030;SDS011;61072;47.808;7.636;2023-02-01T14:32:33;15.10;;;3.75;;
21030;SDS011;61072;47.808;7.636;2023-02-01T14:44:53;11.50;;;3.38;;
21030;SDS011;61072;47.808;7.636;2023-02-01T14:50:11;12.73;;;4.10;;
21030;SDS011;61072;47.808;7.636;2023-02-01T14:58:05;12.40;;;3.30;;
21030;SDS011;61072;47.808;7.636;2023-02-01T15:03:23;14.90;;;3.78;;
21030;SDS011;61072;47.808;7.636;2023-02-01T15:06:01;14.65;;;4.07;;
21030;SDS011;61072;47.808;7.636;2023-02-01T15:08:36;14.32;;;3.50;;
21030;SDS011;61072;47.808;7.636;2023-02-01T15:11:06;12.73;;;3.80;;
21030;SDS011;61072;47.808;7.636;2023-02-01T15:13:39;12.48;;;3.13;;
21030;SDS011;61072;47.808;7.636;2023-02-01T15:16:10;15.77;;;3.88;;
21030;SDS011;61072;47.808;7.636;2023-02-01T15:18:39;15.38;;;4.05;;
21030;SDS011;61072;47.808;7.636;2023-02-01T15:21:14;19.60;;;3.85;;
21030;SDS011;61072;47.808;7.636;2023-02-01T15:27:04;13.98;;;3.13;;
21030;SDS011;61072;47.808;7.636;2023-02-01T15:29:32;12.25;;;3.05;;
21030;SDS011;61072;47.808;7.636;2023-02-01T15:31:59;14.77;;;3.83;;
21030;SDS011;61072;47.808;7.636;2023-02-01T15:34:44;11.23;;;3.28;;
21030;SDS011;61072;47.808;7.636;2023-02-01T15:37:14;17.58;;;3.63;;
21030;SDS011;61072;47.808;7.636;2023-02-01T15:42:31;11.75;;;4.13;;
21030;SDS011;61072;47.808;7.636;2023-02-01T15:44:57;15.13;;;3.80;;
21030;SDS011;61072;47.808;7.636;2023-02-01T15:47:25;15.05;;;3.47;;
21030;SDS011;61072;47.808;7.636;2023-02-01T15:52:26;13.00;;;4.15;;
21030;SDS011;61072;47.808;7.636;2023-02-01T15:55:03;11.63;;;4.00;;
21030;SDS011;61072;47.808;7.636;2023-02-01T15:57:42;17.58;;;5.03;;
21030;SDS011;61072;47.808;7.636;2023-02-01T16:00:29;18.98;;;4.10;;
21030;SDS011;61072;47.808;7.636;2023-02-01T16:03:01;14.60;;;3.75;;
21030;SDS011;61072;47.808;7.636;2023-02-01T16:05:33;20.13;;;3.67;;
21030;SDS011;61072;47.808;7.636;2023-02-01T16:08:12;14.10;;;3.90;;
21030;SDS011;61072;47.808;7.636;2023-02-01T16:10:48;17.95;;;4.45;;
21030;SDS011;61072;47.808;7.636;2023-02-01T16:13:20;14.68;;;3.17;;
21030;SDS011;61072;47.808;7.636;2023-02-01T16:15:47;15.50;;;3.65;;
21030;SDS011;61072;47.808;7.636;2023-02-01T16:18:14;14.80;;;3.55;;
21030;SDS011;61072;47.808;7.636;2023-02-01T16:20:44;13.68;;;3.47;;
21030;SDS011;61072;47.808;7.636;2023-02-01T16:23:13;16.30;;;3.50;;
21030;SDS011;61072;47.808;7.636;2023-02-01T16:25:40;14.68;;;3.53;;
21030;SDS011;61072;47.808;7.636;2023-02-01T16:28:07;10.57;;;3.55;;
21030;SDS011;61072;47.808;7.636;2023-02-01T16:30:34;12.00;;;3.60;;
21030;SDS011;61072;47.808;7.636;2023-02-01T16:33:02;16.80;;;4.25;;
21030;SDS011;61072;47.808;7.636;2023-02-01T16:35:34;10.55;;;3.35;;
21030;SDS011;61072;47.808;7.636;2023-02-01T16:38:09;12.85;;;3.65;;
21030;SDS011;61072;47.808;7.636;2023-02-01T16:40:39;16.40;;;4.40;;
21030;SDS011;61072;47.808;7.636;2023-02-01T16:45:41;11.40;;;3.40;;
21030;SDS011;61072;47.808;7.636;2023-02-01T16:48:21;14.68;;;4.15;;
21030;SDS011;61072;47.808;7.636;2023-02-01T16:50:53;15.77;;;4.13;;
21030;SDS011;61072;47.808;7.636;2023-02-01T16:53:26;15.25;;;3.70;;
21030;SDS011;61072;47.808;7.636;2023-02-01T16:55:56;10.27;;;4.70;;
21030;SDS011;61072;47.808;7.636;2023-02-01T16:58:26;16.73;;;3.88;;
21030;SDS011;61072;47.808;7.636;2023-02-01T17:00:53;11.95;;;4.10;;
21030;SDS011;61072;47.808;7.636;2023-02-01T17:03:20;10.93;;;3.90;;
21030;SDS011;61072;47.808;7.636;2023-02-01T17:05:49;12.88;;;4.10;;
21030;SDS011;61072;47.808;7.636;2023-02-01T17:08:21;16.08;;;5.00;;
21030;SDS011;61072;47.808;7.636;2023-02-01T17:10:54;20.42;;;6.28;;
21030;SDS011;61072;47.808;7.636;2023-02-01T17:13:21;17.75;;;5.05;;
21030;SDS011;61072;47.808;7.636;2023-02-01T17:18:44;21.40;;;4.20;;
21030;SDS011;61072;47.808;7.636;2023-02-01T17:21:18;12.48;;;3.90;;
21030;SDS011;61072;47.808;7.636;2023-02-01T17:23:45;13.05;;;4.18;;
21030;SDS011;61072;47.808;7.636;2023-02-01T17:26:12;20.60;;;4.85;;
21030;SDS011;61072;47.808;7.636;2023-02-01T17:28:39;16.63;;;4.40;;
21030;SDS011;61072;47.808;7.636;2023-02-01T17:31:06;13.43;;;4.15;;
21030;SDS011;61072;47.808;7.636;2023-02-01T17:33:43;18.50;;;4.90;;
21030;SDS011;61072;47.808;7.636;2023-02-01T17:36:13;19.10;;;5.70;;
21030;SDS011;61072;47.808;7.636;2023-02-01T17:38:41;19.70;;;5.45;;